Time;durP1;ratioP1;P1;durP2;ratioP2;P2;SDS_P1;SDS_P2;PMS_P1;PMS_P2;Temp;Humidity;BMP_temperature;BMP_pressure;BME280_temperature;BME280_humidity;BME280_pressure;Samples;Min_cycle;Max_cycle;Signal;HPM_P1;HPM_P2
2023/04/19 00:04:55;;;;;;;;;;;;;;;9.93;73.56;103220.63;20792613;28;20004;-57
2023/04/19 00:15:17;;;;;;;;;;;;;;;9.74;74.50;103227.28;20795061;28;19929;-57
2023/04/19 00:25:38;;;;;;;;;;;;;;;9.55;74.29;103229.63;20780678;28;20494;-54
2023/04/19 00:35:59;;;;;;;;;;;;;;;9.44;74.06;103210.53;20809086;28;19933;-56
2023/04/19 00:46:22;;;;;;;;;;;;;;;9.31;74.29;103211.22;20814008;28;19926;-56
2023/04/19 00:56:43;;;;;;;;;;;;;;;9.25;73.26;103213.75;20814527;28;20021;-55
2023/04/19 01:07:05;;;;;;;;;;;;;;;9.17;72.39;103210.16;20792466;28;19949;-56
2023/04/19 01:17:27;;;;;;;;;;;;;;;9.08;71.20;103214.34;20792790;28;19976;-56
2023/04/19 01:27:50;;;;;;;;;;;;;;;9.03;70.28;103210.84;20797870;28;19935;-56
2023/04/19 01:38:11;;;;;;;;;;;;;;;8.85;70.04;103212.28;20822503;28;19925;-57
2023/04/19 01:48:33;;;;;;;;;;;;;;;8.75;69.98;103219.00;20803146;28;19929;-56
2023/04/19 01:58:54;;;;;;;;;;;;;;;8.71;69.58;103212.06;20793507;28;19991;-55
2023/04/19 02:09:16;;;;;;;;;;;;;;;8.61;69.44;103210.16;20788625;28;20450;-56
2023/04/19 02:19:37;;;;;;;;;;;;;;;8.44;69.59;103206.44;20786952;28;19933;-55
2023/04/19 02:29:59;;;;;;;;;;;;;;;8.30;69.15;103214.78;20788332;28;19965;-55
2023/04/19 02:40:21;;;;;;;;;;;;;;;8.22;69.34;103222.38;20803322;28;19926;-55
2023/04/19 02:50:43;;;;;;;;;;;;;;;8.11;69.71;103226.44;20805850;28;19926;-57
2023/04/19 03:01:04;;;;;;;;;;;;;;;7.92;70.69;103222.66;20796228;28;20055;-56
2023/04/19 03:11:26;;;;;;;;;;;;;;;7.80;70.89;103221.53;20799524;28;19932;-57
2023/04/19 03:21:47;;;;;;;;;;;;;;;7.73;69.96;103224.81;20805271;28;19975;-57
2023/04/19 03:32:08;;;;;;;;;;;;;;;7.63;71.04;103212.59;20810776;28;19925;-57
2023/04/19 03:42:30;;;;;;;;;;;;;;;7.50;70.64;103216.63;20797638;28;19952;-56
2023/04/19 03:52:52;;;;;;;;;;;;;;;7.32;71.30;103215.38;20800683;28;19983;-56
2023/04/19 04:03:14;;;;;;;;;;;;;;;7.25;71.30;103213.50;20800477;28;20603;-57
2023/04/19 04:13:36;;;;;;;;;;;;;;;7.23;71.67;103210.00;20789806;28;19925;-56
2023/04/19 04:24:00;;;;;;;;;;;;;;;7.09;71.22;103225.13;20799339;28;19929;-55
2023/04/19 04:34:22;;;;;;;;;;;;;;;7.03;71.55;103225.88;20799585;28;19971;-56
2023/04/19 04:44:43;;;;;;;;;;;;;;;7.02;71.59;103234.44;20790968;28;19925;-56
2023/04/19 04:55:06;;;;;;;;;;;;;;;6.93;71.56;103230.78;20795598;28;19925;-57
2023/04/19 05:05:27;;;;;;;;;;;;;;;6.93;72.22;103230.78;20797275;28;20388;-55
2023/04/19 05:15:49;;;;;;;;;;;;;;;6.89;72.12;103234.97;20783129;28;19995;-56
2023/04/19 05:26:11;;;;;;;;;;;;;;;6.92;70.78;103223.91;20813308;28;19975;-57
2023/04/19 05:36:33;;;;;;;;;;;;;;;6.96;71.21;103230.84;20807666;28;19960;-57
2023/04/19 05:46:54;;;;;;;;;;;;;;;7.05;70.81;103237.06;20811606;28;20324;-57
2023/04/19 05:57:15;;;;;;;;;;;;;;;7.23;69.61;103231.50;20807477;28;20376;-56
2023/04/19 06:07:37;;;;;;;;;;;;;;;7.36;70.32;103223.16;20790714;28;19929;-56
2023/04/19 06:18:05;;;;;;;;;;;;;;;7.50;69.07;103220.91;20809124;28;19969;-55
2023/04/19 06:28:27;;;;;;;;;;;;;;;7.69;69.44;103223.03;20791041;28;19957;-56
2023/04/19 06:38:49;;;;;;;;;;;;;;;8.00;68.81;103212.50;20795684;28;19975;-56
2023/04/19 06:49:10;;;;;;;;;;;;;;;8.33;67.64;103217.44;20814480;28;20432;-56
2023/04/19 06:59:32;;;;;;;;;;;;;;;8.63;67.15;103211.06;20804804;28;19929;-54
2023/04/19 07:09:53;;;;;;;;;;;;;;;8.91;66.20;103208.09;20803867;28;19928;-57
2023/04/19 07:20:15;;;;;;;;;;;;;;;9.21;64.11;103201.63;20798296;28;19929;-55
2023/04/19 07:30:36;;;;;;;;;;;;;;;9.38;63.95;103194.94;20799650;28;20015;-57
2023/04/19 07:40:58;;;;;;;;;;;;;;;9.64;63.46;103184.09;20799970;28;19983;-56
2023/04/19 07:51:19;;;;;;;;;;;;;;;9.86;63.88;103180.03;20798495;28;19933;-57
2023/04/19 08:01:41;;;;;;;;;;;;;;;10.01;61.72;103173.31;20799639;28;19929;-57
2023/04/19 08:12:02;;;;;;;;;;;;;;;10.13;62.27;103174.31;20784963;28;20392;-56
2023/04/19 08:22:24;;;;;;;;;;;;;;;10.36;60.52;103167.63;20797911;28;19933;-55
2023/04/19 08:32:45;;;;;;;;;;;;;;;10.61;61.47;103147.13;20803177;28;19929;-55
2023/04/19 08:43:07;;;;;;;;;;;;;;;10.88;59.34;103131.75;20792762;28;19933;-57
2023/04/19 08:53:29;;;;;;;;;;;;;;;11.21;59.63;103127.63;20789462;28;19933;-55
2023/04/19 09:03:50;;;;;;;;;;;;;;;11.44;58.03;103120.78;20807549;28;19925;-55
2023/04/19 09:14:32;;;;;;;;;;;;;;;11.71;57.12;103103.63;20809836;28;20212;-57
2023/04/19 09:24:53;;;;;;;;;;;;;;;11.92;55.65;103090.66;20794857;28;19925;-57
2023/04/19 09:35:17;;;;;;;;;;;;;;;12.11;54.49;103070.78;20800446;28;19983;-57
2023/04/19 09:45:40;;;;;;;;;;;;;;;12.33;52.65;103067.28;20811528;28;20407;-56
2023/04/19 09:56:04;;;;;;;;;;;;;;;12.58;53.43;103043.00;20815993;28;20505;-57
2023/04/19 10:06:26;;;;;;;;;;;;;;;12.74;51.80;103038.63;20808269;28;19975;-57
2023/04/19 10:17:07;;;;;;;;;;;;;;;12.94;52.27;103026.44;20815602;28;19925;-57
2023/04/19 10:27:33;;;;;;;;;;;;;;;13.06;52.29;103011.69;20793008;28;19929;-57
2023/04/19 10:38:02;;;;;;;;;;;;;;;13.23;51.87;102977.78;20818442;28;19932;-56
2023/04/19 10:48:29;;;;;;;;;;;;;;;13.82;53.66;102959.13;20807685;28;20014;-57
2023/04/19 10:59:13;;;;;;;;;;;;;;;13.95;51.25;102932.09;20801738;28;19932;-56
2023/04/19 11:09:35;;;;;;;;;;;;;;;14.26;52.96;102920.47;20786696;28;19932;-57
2023/04/19 11:20:05;;;;;;;;;;;;;;;14.46;50.57;102909.84;20800808;28;19929;-57
2023/04/19 11:30:27;;;;;;;;;;;;;;;14.67;50.40;102891.31;20798195;28;19929;-57
2023/04/19 11:40:57;;;;;;;;;;;;;;;15.08;49.11;102837.69;20804091;28;19932;-57
2023/04/19 11:51:19;;;;;;;;;;;;;;;15.11;47.74;102853.28;20794735;28;19987;-56
2023/04/19 12:01:40;;;;;;;;;;;;;;;15.40;46.89;102839.72;20801889;28;19956;-55
2023/04/19 12:12:02;;;;;;;;;;;;;;;15.57;49.67;102836.84;20777127;28;19936;-55
2023/04/19 12:22:23;;;;;;;;;;;;;;;15.67;50.21;102822.75;20801749;28;19983;-57
2023/04/19 12:32:45;;;;;;;;;;;;;;;15.89;47.10;102805.78;20791875;28;19932;-57
2023/04/19 12:43:09;;;;;;;;;;;;;;;16.02;46.33;102786.38;20798214;28;20008;-56
2023/04/19 12:53:30;;;;;;;;;;;;;;;15.97;45.84;102791.66;20791327;28;19932;-58
2023/04/19 13:03:52;;;;;;;;;;;;;;;16.05;46.07;102768.00;20802202;28;19929;-57
2023/04/19 13:14:17;;;;;;;;;;;;;;;16.10;44.17;102773.97;20786347;28;19951;-58
2023/04/19 13:24:38;;;;;;;;;;;;;;;16.10;35.75;102747.84;20786618;28;20434;-58
2023/04/19 13:35:00;;;;;;;;;;;;;;;16.63;46.78;102725.72;20787729;28;19925;-57
2023/04/19 13:45:22;;;;;;;;;;;;;;;16.73;45.63;102719.41;20816109;28;19936;-57
2023/04/19 13:55:43;;;;;;;;;;;;;;;16.43;42.83;102728.81;20806084;28;19968;-56
2023/04/19 14:06:04;;;;;;;;;;;;;;;16.43;45.30;102717.47;20808272;28;20047;-56
2023/04/19 14:16:26;;;;;;;;;;;;;;;16.72;47.78;102704.63;20807857;28;20268;-57
2023/04/19 14:26:47;;;;;;;;;;;;;;;16.99;45.34;102696.06;20811925;28;19925;-58
2023/04/19 14:37:29;;;;;;;;;;;;;;;16.22;45.84;102694.50;20796215;28;20358;-58
2023/04/19 14:47:50;;;;;;;;;;;;;;;16.64;48.17;102680.41;20801738;28;19925;-58
2023/04/19 14:58:12;;;;;;;;;;;;;;;16.86;44.14;102671.13;20800683;28;19935;-58
2023/04/19 15:08:33;;;;;;;;;;;;;;;16.56;45.30;102672.75;20798204;28;19952;-57
2023/04/19 15:18:54;;;;;;;;;;;;;;;16.51;47.10;102685.09;20796544;28;19979;-57
2023/04/19 15:29:16;;;;;;;;;;;;;;;16.67;42.61;102675.09;20798632;28;19929;-57
2023/04/19 15:39:38;;;;;;;;;;;;;;;16.60;43.11;102690.09;20796692;28;19936;-58
2023/04/19 15:50:00;;;;;;;;;;;;;;;16.41;42.29;102699.22;20782288;28;19929;-57
2023/04/19 16:00:21;;;;;;;;;;;;;;;16.44;43.83;102709.63;20809158;28;19952;-57
2023/04/19 16:10:43;;;;;;;;;;;;;;;16.37;40.29;102701.97;20798458;28;19987;-56
2023/04/19 16:21:05;;;;;;;;;;;;;;;16.28;39.90;102713.47;20812749;28;19929;-56
2023/04/19 16:31:26;;;;;;;;;;;;;;;16.33;43.72;102710.78;20799061;28;19951;-56
2023/04/19 16:41:48;;;;;;;;;;;;;;;16.17;38.91;102718.09;20780906;28;19964;-56
2023/04/19 16:52:09;;;;;;;;;;;;;;;15.80;41.39;102715.44;20802345;28;19974;-56
2023/04/19 17:02:31;;;;;;;;;;;;;;;15.29;40.73;102723.44;20794218;28;20400;-56
2023/04/19 17:12:54;;;;;;;;;;;;;;;14.84;44.13;102717.28;20808336;28;20281;-57
2023/04/19 17:23:15;;;;;;;;;;;;;;;14.69;44.11;102721.03;20812172;28;20364;-57
2023/04/19 17:33:37;;;;;;;;;;;;;;;14.53;34.41;102716.06;20809215;28;20331;-57
2023/04/19 17:43:59;;;;;;;;;;;;;;;14.12;45.64;102720.13;20810349;28;20312;-56
2023/04/19 17:54:20;;;;;;;;;;;;;;;13.71;42.30;102724.19;20808018;28;19935;-55
2023/04/19 18:04:44;;;;;;;;;;;;;;;13.46;44.26;102720.16;20805444;28;19963;-55
2023/04/19 18:15:06;;;;;;;;;;;;;;;13.32;46.38;102727.22;20806934;28;20016;-54
2023/04/19 18:25:28;;;;;;;;;;;;;;;13.19;45.96;102730.81;20801993;28;19930;-55
2023/04/19 18:35:49;;;;;;;;;;;;;;;12.95;37.56;102727.56;20804403;28;20023;-57
2023/04/19 18:46:11;;;;;;;;;;;;;;;12.84;47.85;102724.19;20810412;28;19925;-55
2023/04/19 18:56:32;;;;;;;;;;;;;;;12.69;47.88;102726.94;20811001;28;19944;-57
2023/04/19 19:06:57;;;;;;;;;;;;;;;12.53;47.59;102743.50;20789654;28;20335;-57
2023/04/19 19:17:28;;;;;;;;;;;;;;;12.32;46.47;102748.84;20799060;28;19925;-56
2023/04/19 19:27:53;;;;;;;;;;;;;;;12.08;47.68;102751.59;20807879;28;19933;-57
2023/04/19 19:38:18;;;;;;;;;;;;;;;11.94;49.59;102761.16;20798176;28;19929;-55
2023/04/19 19:48:39;;;;;;;;;;;;;;;11.75;49.61;102752.63;20780952;28;19929;-56
2023/04/19 19:59:03;;;;;;;;;;;;;;;11.53;47.57;102748.34;20811855;28;19925;-57
2023/04/19 20:09:26;;;;;;;;;;;;;;;11.46;49.68;102750.94;20800886;28;20376;-57
2023/04/19 20:19:49;;;;;;;;;;;;;;;11.46;50.84;102741.44;20783371;28;19979;-55
2023/04/19 20:30:11;;;;;;;;;;;;;;;11.31;48.48;102740.59;20798424;28;19940;-57
2023/04/19 20:40:32;;;;;;;;;;;;;;;11.27;48.79;102720.75;20795913;28;19979;-55
2023/04/19 20:50:54;;;;;;;;;;;;;;;11.26;51.15;102706.06;20808877;28;20811;-55
2023/04/19 21:01:16;;;;;;;;;;;;;;;11.15;50.93;102694.00;20815977;28;19933;-55
2023/04/19 21:11:37;;;;;;;;;;;;;;;10.90;51.61;102678.50;20792430;28;19925;-55
2023/04/19 21:21:59;;;;;;;;;;;;;;;10.78;53.12;102681.97;20811556;28;19929;-55
2023/04/19 21:32:21;;;;;;;;;;;;;;;10.70;52.44;102673.34;20822000;28;20442;-57
2023/04/19 21:42:42;;;;;;;;;;;;;;;10.60;53.53;102666.44;20808169;28;19988;-57
2023/04/19 21:53:04;;;;;;;;;;;;;;;10.42;54.44;102656.09;20807648;28;20070;-56
2023/04/19 22:03:25;;;;;;;;;;;;;;;10.43;54.38;102650.06;20789855;28;20063;-55
2023/04/19 22:13:47;;;;;;;;;;;;;;;10.44;54.71;102636.25;20816886;28;19929;-56
2023/04/19 22:24:08;;;;;;;;;;;;;;;10.47;53.56;102641.44;20807057;28;20002;-55
2023/04/19 22:34:30;;;;;;;;;;;;;;;10.54;55.04;102640.56;20804099;28;20660;-56
2023/04/19 22:44:51;;;;;;;;;;;;;;;10.56;53.46;102623.31;20804481;28;19932;-55
2023/04/19 22:55:12;;;;;;;;;;;;;;;10.53;54.52;102581.88;20803943;28;19932;-57
2023/04/19 23:05:35;;;;;;;;;;;;;;;10.52;53.73;102562.06;20797458;28;19929;-57
2023/04/19 23:15:57;;;;;;;;;;;;;;;10.54;54.17;102537.03;20805176;28;19951;-58
2023/04/19 23:26:18;;;;;;;;;;;;;;;10.51;55.31;102511.16;20805891;28;20027;-56
2023/04/19 23:36:40;;;;;;;;;;;;;;;10.54;55.82;102505.97;20801653;28;19933;-55
2023/04/19 23:47:02;;;;;;;;;;;;;;;10.43;55.79;102502.56;20805204;28;19929;-56
2023/04/19 23:57:23;;;;;;;;;;;;;;;10.28;57.74;102518.09;20803546;28;20020;-56
